Time;durP1;ratioP1;P1;durP2;ratioP2;P2;SDS_P1;SDS_P2;PMS_P1;PMS_P2;Temp;Humidity;BMP_temperature;BMP_pressure;BME280_temperature;BME280_humidity;BME280_pressure;Samples;Min_cycle;Max_cycle;Signal;HPM_P1;HPM_P2
2023/04/08 00:00:33;;;;;;;;;;;4.50;99.90;;;;;;5028466;28;19924;-78
2023/04/08 00:02:59;;;;;;;;;;;4.50;99.90;;;;;;5029550;28;20340;-79
2023/04/08 00:05:24;;;;;;;;;;;4.40;99.90;;;;;;5010123;28;19928;-79
2023/04/08 00:07:50;;;;;;;;;;;4.50;99.90;;;;;;5010609;28;19927;-79
2023/04/08 00:10:15;;;;;;;;;;;4.40;99.90;;;;;;5001994;28;19936;-79
2023/04/08 00:12:41;;;;;;;;;;;4.40;99.90;;;;;;5021949;28;19921;-79
2023/04/08 00:15:07;;;;;;;;;;;4.40;99.90;;;;;;5023279;28;19921;-79
2023/04/08 00:17:32;;;;;;;;;;;4.40;99.90;;;;;;5020569;28;19929;-79
2023/04/08 00:19:58;;;;;;;;;;;4.30;99.90;;;;;;5010357;28;20020;-78
2023/04/08 00:22:23;;;;;;;;;;;4.40;99.90;;;;;;5023891;28;19939;-79
2023/04/08 00:24:49;;;;;;;;;;;4.40;99.90;;;;;;5009221;28;19920;-78
2023/04/08 00:27:15;;;;;;;;;;;4.30;99.90;;;;;;5032433;28;20478;-78
2023/04/08 00:29:40;;;;;;;;;;;4.30;99.90;;;;;;5019841;28;20011;-78
2023/04/08 00:32:06;;;;;;;;;;;4.20;99.90;;;;;;5031533;28;19975;-78
2023/04/08 00:34:32;;;;;;;;;;;4.20;99.90;;;;;;5019502;28;20712;-78
2023/04/08 00:36:58;;;;;;;;;;;4.20;99.90;;;;;;5027522;28;19928;-78
2023/04/08 00:39:24;;;;;;;;;;;4.20;99.90;;;;;;5038474;28;19924;-79
2023/04/08 00:41:50;;;;;;;;;;;4.10;99.90;;;;;;5020173;28;19951;-79
2023/04/08 00:44:16;;;;;;;;;;;4.10;99.90;;;;;;5018372;28;19921;-78
2023/04/08 00:46:41;;;;;;;;;;;4.00;99.90;;;;;;5017899;28;19926;-78
2023/04/08 00:49:07;;;;;;;;;;;4.00;99.90;;;;;;5038843;28;19921;-79
2023/04/08 00:51:35;;;;;;;;;;;4.00;99.90;;;;;;5018842;28;20010;-78
2023/04/08 00:54:01;;;;;;;;;;;4.00;99.90;;;;;;5037531;28;19982;-78
2023/04/08 00:56:26;;;;;;;;;;;3.90;99.90;;;;;;5031551;28;19925;-78
2023/04/08 00:58:54;;;;;;;;;;;4.00;99.90;;;;;;5034339;28;19936;-78
2023/04/08 01:01:40;;;;;;;;;;;3.90;99.90;;;;;;5016324;28;19920;-78
2023/04/08 01:04:12;;;;;;;;;;;3.90;99.90;;;;;;5020010;28;19928;-78
2023/04/08 01:06:58;;;;;;;;;;;3.90;99.90;;;;;;5021611;28;19921;-78
2023/04/08 01:09:26;;;;;;;;;;;3.80;99.90;;;;;;5016554;28;19935;-78
2023/04/08 01:11:52;;;;;;;;;;;3.90;99.90;;;;;;5021983;28;19920;-78
2023/04/08 01:14:24;;;;;;;;;;;3.90;99.90;;;;;;5019608;28;19921;-78
2023/04/08 01:16:49;;;;;;;;;;;3.90;99.90;;;;;;5019060;28;19927;-78
2023/04/08 01:19:26;;;;;;;;;;;3.90;99.90;;;;;;5018503;28;19920;-78
2023/04/08 01:21:54;;;;;;;;;;;3.90;99.90;;;;;;5026287;28;20451;-78
2023/04/08 01:24:26;;;;;;;;;;;3.90;99.90;;;;;;5037192;28;19920;-78
2023/04/08 01:26:52;;;;;;;;;;;3.80;99.90;;;;;;5021813;28;19928;-78
2023/04/08 01:29:19;;;;;;;;;;;3.80;99.90;;;;;;5020762;28;19921;-79
2023/04/08 01:31:45;;;;;;;;;;;3.70;99.90;;;;;;5020918;28;19925;-78
2023/04/08 01:34:12;;;;;;;;;;;3.70;99.90;;;;;;5017609;28;19927;-78
2023/04/08 01:36:38;;;;;;;;;;;3.80;99.90;;;;;;5034376;28;19921;-78
2023/04/08 01:39:04;;;;;;;;;;;3.80;99.90;;;;;;5036868;28;19936;-78
2023/04/08 01:41:32;;;;;;;;;;;3.90;99.90;;;;;;5018236;28;19920;-78
2023/04/08 01:43:59;;;;;;;;;;;3.80;99.90;;;;;;5033553;28;19929;-78
2023/04/08 01:46:25;;;;;;;;;;;3.80;99.90;;;;;;5018535;28;19928;-78
2023/04/08 01:48:51;;;;;;;;;;;3.80;99.90;;;;;;5016945;28;19944;-78
2023/04/08 01:51:18;;;;;;;;;;;3.80;99.90;;;;;;5018152;28;20432;-78
2023/04/08 01:53:44;;;;;;;;;;;3.80;99.90;;;;;;5016138;28;19925;-78
2023/04/08 01:56:11;;;;;;;;;;;3.80;99.90;;;;;;5014594;28;19924;-78
2023/04/08 01:58:38;;;;;;;;;;;3.70;99.90;;;;;;5036879;28;19923;-78
2023/04/08 02:01:12;;;;;;;;;;;3.70;99.90;;;;;;5029959;28;19925;-78
2023/04/08 02:03:40;;;;;;;;;;;3.60;99.90;;;;;;5021124;28;20705;-78
2023/04/08 02:06:06;;;;;;;;;;;3.70;99.90;;;;;;5023171;28;20028;-78
2023/04/08 02:08:32;;;;;;;;;;;3.60;99.90;;;;;;5012722;28;19932;-78
2023/04/08 02:10:58;;;;;;;;;;;3.60;99.90;;;;;;5032229;28;19924;-78
2023/04/08 02:13:23;;;;;;;;;;;3.60;99.90;;;;;;5022065;28;19947;-78
2023/04/08 02:15:55;;;;;;;;;;;3.60;99.90;;;;;;5020146;28;20762;-78
2023/04/08 02:18:23;;;;;;;;;;;3.60;99.90;;;;;;5017998;28;19982;-78
2023/04/08 02:20:52;;;;;;;;;;;3.50;99.90;;;;;;5034101;28;20014;-79
2023/04/08 02:23:19;;;;;;;;;;;3.50;99.90;;;;;;5017709;28;20443;-79
2023/04/08 02:25:45;;;;;;;;;;;3.50;99.90;;;;;;5018267;28;19928;-78
2023/04/08 02:28:11;;;;;;;;;;;3.50;99.90;;;;;;5019300;28;20570;-78
2023/04/08 02:30:40;;;;;;;;;;;3.50;99.90;;;;;;5036446;28;19921;-78
2023/04/08 02:33:06;;;;;;;;;;;3.30;99.90;;;;;;5020181;28;19921;-78
2023/04/08 02:35:32;;;;;;;;;;;3.40;99.90;;;;;;5017418;28;20377;-78
2023/04/08 02:37:58;;;;;;;;;;;3.40;99.90;;;;;;5033167;28;20021;-78
2023/04/08 02:40:28;;;;;;;;;;;3.50;99.90;;;;;;5019112;28;20388;-78
2023/04/08 02:42:54;;;;;;;;;;;3.30;99.90;;;;;;5034518;28;19921;-78
2023/04/08 02:45:20;;;;;;;;;;;3.30;99.90;;;;;;5001834;28;20007;-78
2023/04/08 02:47:45;;;;;;;;;;;3.30;99.90;;;;;;5037157;28;19916;-78
2023/04/08 02:50:11;;;;;;;;;;;3.30;99.90;;;;;;5018858;28;20365;-78
2023/04/08 02:52:37;;;;;;;;;;;3.30;99.90;;;;;;5038452;28;19920;-79
2023/04/08 02:55:05;;;;;;;;;;;3.30;99.90;;;;;;5019691;28;20354;-78
2023/04/08 02:57:31;;;;;;;;;;;3.30;99.90;;;;;;5015029;28;20003;-77
2023/04/08 02:59:56;;;;;;;;;;;3.30;99.90;;;;;;5019100;28;20060;-78
2023/04/08 03:02:22;;;;;;;;;;;3.40;99.90;;;;;;5018950;28;19931;-78
2023/04/08 03:04:47;;;;;;;;;;;3.30;99.90;;;;;;5018266;28;19921;-78
2023/04/08 03:07:13;;;;;;;;;;;3.30;99.90;;;;;;5029001;28;19927;-78
2023/04/08 03:09:39;;;;;;;;;;;3.30;99.90;;;;;;5013504;28;19920;-78
2023/04/08 03:12:04;;;;;;;;;;;3.30;99.90;;;;;;5018027;28;20439;-79
2023/04/08 03:14:30;;;;;;;;;;;3.20;99.90;;;;;;5017306;28;20043;-79
2023/04/08 03:16:56;;;;;;;;;;;3.20;99.90;;;;;;5017990;28;19956;-79
2023/04/08 03:19:21;;;;;;;;;;;3.30;99.90;;;;;;5017177;28;19920;-79
2023/04/08 03:21:47;;;;;;;;;;;3.10;99.90;;;;;;5018173;28;20535;-79
2023/04/08 03:24:12;;;;;;;;;;;3.20;99.90;;;;;;5018560;28;20304;-79
2023/04/08 03:26:38;;;;;;;;;;;3.30;99.90;;;;;;5018732;28;19928;-79
2023/04/08 03:29:03;;;;;;;;;;;3.10;99.90;;;;;;5035898;28;19928;-79
2023/04/08 03:31:29;;;;;;;;;;;3.00;99.90;;;;;;5017191;28;19921;-79
2023/04/08 03:33:55;;;;;;;;;;;3.10;99.90;;;;;;5033022;28;19917;-79
2023/04/08 03:36:20;;;;;;;;;;;3.10;99.90;;;;;;5021267;28;19921;-79
2023/04/08 03:38:46;;;;;;;;;;;3.20;99.90;;;;;;5025111;28;19992;-79
2023/04/08 03:41:11;;;;;;;;;;;3.10;99.90;;;;;;5031132;28;19925;-79
2023/04/08 03:43:37;;;;;;;;;;;3.00;99.90;;;;;;5016789;28;19924;-79
2023/04/08 03:46:02;;;;;;;;;;;3.20;99.90;;;;;;5030351;28;19920;-79
2023/04/08 03:48:28;;;;;;;;;;;3.00;99.90;;;;;;5016366;28;19924;-79
2023/04/08 03:50:53;;;;;;;;;;;3.10;99.90;;;;;;5016494;28;19921;-79
2023/04/08 03:53:19;;;;;;;;;;;3.10;99.90;;;;;;5017563;28;20301;-78
2023/04/08 03:55:44;;;;;;;;;;;3.00;99.90;;;;;;5019206;28;20308;-78
2023/04/08 03:58:10;;;;;;;;;;;3.10;99.90;;;;;;5019412;28;19967;-78
2023/04/08 04:00:36;;;;;;;;;;;3.30;99.90;;;;;;5016230;28;19921;-78
2023/04/08 04:03:01;;;;;;;;;;;3.10;99.90;;;;;;5021562;28;20000;-78
2023/04/08 04:05:27;;;;;;;;;;;3.20;99.90;;;;;;5020110;28;19928;-78
2023/04/08 04:07:53;;;;;;;;;;;3.20;99.90;;;;;;5016777;28;19921;-78
2023/04/08 04:10:18;;;;;;;;;;;3.30;99.90;;;;;;5018043;28;20499;-78
2023/04/08 04:12:46;;;;;;;;;;;3.20;99.90;;;;;;5017565;28;19940;-78
2023/04/08 04:15:11;;;;;;;;;;;3.30;99.90;;;;;;5018523;28;19917;-78
2023/04/08 04:17:37;;;;;;;;;;;3.40;99.90;;;;;;5019505;28;19924;-79
2023/04/08 04:20:04;;;;;;;;;;;3.50;99.90;;;;;;5019621;28;20642;-78
2023/04/08 04:22:29;;;;;;;;;;;3.40;99.90;;;;;;5018028;28;19921;-78
2023/04/08 04:24:55;;;;;;;;;;;3.40;99.90;;;;;;5002306;28;19921;-78
2023/04/08 04:27:20;;;;;;;;;;;3.50;99.90;;;;;;5035055;28;20004;-78
2023/04/08 04:29:46;;;;;;;;;;;3.40;99.90;;;;;;5018355;28;19959;-78
2023/04/08 04:32:11;;;;;;;;;;;3.50;99.90;;;;;;5018425;28;19920;-79
2023/04/08 04:34:37;;;;;;;;;;;3.50;99.90;;;;;;5005639;28;19921;-78
2023/04/08 04:37:02;;;;;;;;;;;3.40;99.90;;;;;;5016290;28;19920;-78
2023/04/08 04:39:28;;;;;;;;;;;3.50;99.90;;;;;;5017689;28;20384;-78
2023/04/08 04:41:54;;;;;;;;;;;3.40;99.90;;;;;;5018373;28;19928;-78
2023/04/08 04:44:19;;;;;;;;;;;3.40;99.90;;;;;;5034254;28;19927;-78
2023/04/08 04:46:45;;;;;;;;;;;3.50;99.90;;;;;;5016268;28;20023;-79
2023/04/08 04:49:11;;;;;;;;;;;3.50;99.90;;;;;;5019470;28;19920;-79
2023/04/08 04:51:36;;;;;;;;;;;3.60;99.90;;;;;;5017315;28;19920;-79
2023/04/08 04:54:02;;;;;;;;;;;3.60;99.90;;;;;;5017632;28;19924;-78
2023/04/08 04:56:27;;;;;;;;;;;3.70;99.90;;;;;;5017119;28;19978;-78
2023/04/08 04:58:53;;;;;;;;;;;3.80;99.90;;;;;;5034858;28;19951;-79
2023/04/08 05:01:18;;;;;;;;;;;3.90;99.90;;;;;;5038435;28;19920;-79
2023/04/08 05:03:44;;;;;;;;;;;3.80;99.90;;;;;;5036725;28;20413;-79
2023/04/08 05:06:10;;;;;;;;;;;3.90;99.90;;;;;;5017408;28;20364;-78
2023/04/08 05:08:35;;;;;;;;;;;3.90;99.90;;;;;;5015811;28;19921;-78
2023/04/08 05:11:01;;;;;;;;;;;3.90;99.90;;;;;;5021302;28;20728;-78
2023/04/08 05:13:31;;;;;;;;;;;4.00;99.90;;;;;;5023190;28;20012;-78
2023/04/08 05:15:56;;;;;;;;;;;4.10;99.90;;;;;;5020138;28;19928;-79
2023/04/08 05:18:22;;;;;;;;;;;4.20;99.90;;;;;;5018837;28;20672;-78
2023/04/08 05:20:47;;;;;;;;;;;4.20;99.90;;;;;;5023517;28;20293;-78
2023/04/08 05:23:16;;;;;;;;;;;4.20;99.90;;;;;;5039428;28;19916;-78
2023/04/08 05:25:42;;;;;;;;;;;4.30;99.90;;;;;;5037666;28;19920;-79
2023/04/08 05:28:07;;;;;;;;;;;4.20;99.90;;;;;;5019290;28;19928;-78
2023/04/08 05:30:33;;;;;;;;;;;4.20;99.90;;;;;;5019451;28;20269;-78
2023/04/08 05:32:58;;;;;;;;;;;4.30;99.90;;;;;;5021694;28;20396;-79
2023/04/08 05:35:24;;;;;;;;;;;4.20;99.90;;;;;;5020966;28;19962;-79
2023/04/08 05:37:49;;;;;;;;;;;4.40;99.90;;;;;;5020374;28;19921;-76
2023/04/08 05:40:15;;;;;;;;;;;4.40;99.90;;;;;;5038381;28;19939;-78
2023/04/08 05:42:41;;;;;;;;;;;4.50;99.90;;;;;;5040432;28;19947;-77
2023/04/08 05:45:07;;;;;;;;;;;4.50;99.90;;;;;;5018668;28;20381;-78
2023/04/08 05:47:32;;;;;;;;;;;4.60;99.90;;;;;;5038295;28;19967;-77
2023/04/08 05:49:58;;;;;;;;;;;4.60;99.90;;;;;;5019370;28;20350;-79
2023/04/08 05:52:24;;;;;;;;;;;4.70;99.90;;;;;;5021719;28;20008;-78
2023/04/08 05:54:49;;;;;;;;;;;4.80;99.90;;;;;;5020754;28;20613;-78
2023/04/08 05:57:15;;;;;;;;;;;4.90;99.90;;;;;;5018370;28;19929;-78
2023/04/08 05:59:41;;;;;;;;;;;4.90;99.90;;;;;;5022095;28;19921;-78
2023/04/08 06:02:06;;;;;;;;;;;5.00;99.90;;;;;;5039708;28;19935;-78
2023/04/08 06:04:33;;;;;;;;;;;5.00;99.90;;;;;;5035779;28;19968;-78
2023/04/08 06:07:01;;;;;;;;;;;5.10;99.90;;;;;;5018244;28;20018;-78
2023/04/08 06:09:27;;;;;;;;;;;5.10;99.90;;;;;;5019413;28;19920;-78
2023/04/08 06:11:52;;;;;;;;;;;5.20;99.90;;;;;;5012975;28;20259;-80
2023/04/08 06:14:19;;;;;;;;;;;5.10;99.90;;;;;;5024053;28;19927;-78
2023/04/08 06:16:45;;;;;;;;;;;5.30;99.90;;;;;;5014402;28;19920;-79
2023/04/08 06:19:10;;;;;;;;;;;5.30;99.90;;;;;;5007540;28;19921;-78
2023/04/08 06:21:36;;;;;;;;;;;5.40;99.90;;;;;;4996419;28;19940;-79
2023/04/08 06:24:01;;;;;;;;;;;5.50;99.90;;;;;;4996416;28;19929;-78
2023/04/08 06:26:27;;;;;;;;;;;5.60;99.90;;;;;;5010259;28;19958;-78
2023/04/08 06:28:53;;;;;;;;;;;5.70;99.90;;;;;;5021923;28;19959;-78
2023/04/08 06:31:18;;;;;;;;;;;5.80;99.90;;;;;;5020344;28;19916;-78
2023/04/08 06:33:44;;;;;;;;;;;5.90;99.90;;;;;;5017964;28;19925;-78
2023/04/08 06:36:12;;;;;;;;;;;6.10;99.90;;;;;;5031488;28;19920;-78
2023/04/08 06:38:37;;;;;;;;;;;6.30;99.90;;;;;;5019070;28;19928;-78
2023/04/08 06:41:03;;;;;;;;;;;6.60;99.90;;;;;;5034927;28;20456;-78
2023/04/08 06:43:29;;;;;;;;;;;6.70;99.90;;;;;;5018228;28;19928;-78
2023/04/08 06:45:55;;;;;;;;;;;6.80;99.90;;;;;;5000826;28;19921;-78
2023/04/08 06:48:22;;;;;;;;;;;6.90;99.90;;;;;;5035757;28;19928;-78
2023/04/08 06:50:48;;;;;;;;;;;6.90;99.90;;;;;;5022177;28;19929;-78
2023/04/08 06:53:13;;;;;;;;;;;6.90;99.90;;;;;;5021087;28;19971;-79
2023/04/08 06:55:39;;;;;;;;;;;7.10;99.90;;;;;;5021486;28;20483;-79
2023/04/08 06:58:05;;;;;;;;;;;7.30;99.90;;;;;;5018517;28;20019;-78
2023/04/08 07:00:31;;;;;;;;;;;7.70;99.90;;;;;;5020985;28;20399;-78
2023/04/08 07:02:56;;;;;;;;;;;8.00;99.90;;;;;;5019766;28;19917;-79
2023/04/08 07:05:22;;;;;;;;;;;8.10;99.90;;;;;;5020111;28;19920;-79
2023/04/08 07:07:47;;;;;;;;;;;8.20;99.90;;;;;;5019543;28;19960;-77
2023/04/08 07:10:13;;;;;;;;;;;8.10;99.90;;;;;;5019562;28;19964;-78
2023/04/08 07:12:38;;;;;;;;;;;8.50;99.90;;;;;;5022831;28;20052;-78
2023/04/08 07:15:04;;;;;;;;;;;8.50;99.90;;;;;;5019736;28;19928;-78
2023/04/08 07:17:30;;;;;;;;;;;8.50;99.90;;;;;;5020097;28;19927;-79
2023/04/08 07:19:55;;;;;;;;;;;8.40;99.90;;;;;;5020815;28;19928;-78
2023/04/08 07:22:21;;;;;;;;;;;8.40;99.90;;;;;;5018701;28;19966;-78
2023/04/08 07:24:48;;;;;;;;;;;8.60;99.90;;;;;;5020132;28;19971;-78
2023/04/08 07:27:17;;;;;;;;;;;8.80;99.90;;;;;;5020476;28;20421;-78
2023/04/08 07:29:42;;;;;;;;;;;8.30;99.90;;;;;;5022433;28;19933;-79
2023/04/08 07:32:08;;;;;;;;;;;8.30;99.90;;;;;;5038715;28;19979;-78
2023/04/08 07:34:36;;;;;;;;;;;8.30;99.90;;;;;;5037898;28;19924;-78
2023/04/08 07:37:02;;;;;;;;;;;8.80;99.90;;;;;;5019395;28;19924;-78
2023/04/08 07:39:27;;;;;;;;;;;8.50;99.90;;;;;;5018247;28;20357;-78
2023/04/08 07:41:53;;;;;;;;;;;8.50;99.90;;;;;;5002356;28;19917;-78
2023/04/08 07:44:19;;;;;;;;;;;8.50;99.90;;;;;;5020067;28;19928;-78
2023/04/08 07:46:48;;;;;;;;;;;8.50;99.90;;;;;;5019413;28;19932;-78
2023/04/08 07:49:13;;;;;;;;;;;8.60;99.90;;;;;;5020252;28;20469;-77
2023/04/08 07:51:39;;;;;;;;;;;8.20;99.90;;;;;;5020445;28;19920;-78
2023/04/08 07:54:04;;;;;;;;;;;8.30;99.90;;;;;;5020014;28;19977;-78
2023/04/08 07:56:30;;;;;;;;;;;8.50;99.90;;;;;;5033007;28;19929;-78
2023/04/08 07:58:56;;;;;;;;;;;8.60;99.90;;;;;;5036111;28;20012;-78
2023/04/08 08:01:22;;;;;;;;;;;8.10;99.90;;;;;;5018807;28;19939;-78
2023/04/08 08:03:51;;;;;;;;;;;8.70;99.90;;;;;;5013017;28;19921;-78
2023/04/08 08:06:16;;;;;;;;;;;9.30;99.90;;;;;;5011383;28;19920;-78
2023/04/08 08:08:42;;;;;;;;;;;9.20;99.90;;;;;;5008411;28;19927;-78
2023/04/08 08:11:08;;;;;;;;;;;9.50;99.90;;;;;;5022476;28;19925;-77
2023/04/08 08:13:34;;;;;;;;;;;9.90;99.90;;;;;;5022318;28;20023;-78
2023/04/08 08:15:59;;;;;;;;;;;10.00;99.90;;;;;;5018449;28;20471;-78
2023/04/08 08:18:25;;;;;;;;;;;10.10;99.90;;;;;;5017496;28;20318;-77
2023/04/08 08:20:51;;;;;;;;;;;9.80;99.90;;;;;;5021793;28;19925;-78
2023/04/08 08:23:16;;;;;;;;;;;10.00;99.90;;;;;;5017764;28;19925;-78
2023/04/08 08:25:42;;;;;;;;;;;9.60;99.90;;;;;;5018620;28;19920;-79
2023/04/08 08:28:08;;;;;;;;;;;10.10;99.90;;;;;;5033487;28;19927;-78
2023/04/08 08:30:33;;;;;;;;;;;10.00;99.90;;;;;;5027393;28;19921;-77
2023/04/08 08:32:59;;;;;;;;;;;9.30;99.90;;;;;;5018022;28;19927;-78
2023/04/08 08:35:25;;;;;;;;;;;9.30;99.90;;;;;;5016006;28;19937;-78
2023/04/08 08:37:50;;;;;;;;;;;9.40;99.90;;;;;;5015633;28;19928;-78
2023/04/08 08:40:16;;;;;;;;;;;9.50;99.90;;;;;;5036395;28;19927;-78
2023/04/08 08:42:48;;;;;;;;;;;10.10;99.90;;;;;;5020117;28;20404;-78
2023/04/08 08:45:14;;;;;;;;;;;10.00;99.90;;;;;;5016185;28;19921;-78
2023/04/08 08:47:40;;;;;;;;;;;9.90;99.90;;;;;;5007207;28;19921;-78
2023/04/08 08:50:05;;;;;;;;;;;9.90;99.90;;;;;;5004960;28;19944;-77
2023/04/08 08:52:31;;;;;;;;;;;10.50;99.90;;;;;;5039847;28;19928;-78
2023/04/08 08:54:57;;;;;;;;;;;11.00;99.90;;;;;;5038118;28;19947;-78
2023/04/08 08:57:23;;;;;;;;;;;11.10;99.90;;;;;;5017777;28;19932;-78
2023/04/08 08:59:49;;;;;;;;;;;10.80;99.90;;;;;;5025797;28;19927;-78
2023/04/08 09:02:28;;;;;;;;;;;11.20;99.90;;;;;;5021129;28;19946;-78
2023/04/08 09:04:57;;;;;;;;;;;10.40;99.90;;;;;;5039086;28;19936;-78
2023/04/08 09:07:24;;;;;;;;;;;10.90;99.90;;;;;;5001668;28;21203;-78
2023/04/08 09:09:50;;;;;;;;;;;10.20;99.90;;;;;;5024595;28;20642;-77
2023/04/08 09:12:16;;;;;;;;;;;9.80;99.90;;;;;;5021180;28;20043;-78
2023/04/08 09:14:41;;;;;;;;;;;9.90;99.90;;;;;;5025639;28;19927;-78
2023/04/08 09:17:07;;;;;;;;;;;10.30;99.90;;;;;;5016624;28;19921;-78
2023/04/08 09:19:33;;;;;;;;;;;9.70;99.90;;;;;;5025362;28;20280;-78
2023/04/08 09:22:08;;;;;;;;;;;10.00;99.90;;;;;;5019562;28;20006;-78
2023/04/08 09:24:35;;;;;;;;;;;10.10;99.90;;;;;;5039081;28;20667;-78
2023/04/08 09:27:01;;;;;;;;;;;10.70;99.90;;;;;;5018427;28;20346;-78
2023/04/08 09:29:27;;;;;;;;;;;10.40;99.90;;;;;;5035268;28;19936;-76
2023/04/08 09:31:58;;;;;;;;;;;10.50;99.90;;;;;;5021624;28;19921;-78
2023/04/08 09:34:24;;;;;;;;;;;10.30;99.90;;;;;;5032912;28;19946;-78
2023/04/08 09:36:51;;;;;;;;;;;11.10;99.90;;;;;;5028372;28;19925;-78
2023/04/08 09:39:17;;;;;;;;;;;10.90;99.90;;;;;;5017192;28;19928;-78
2023/04/08 09:41:43;;;;;;;;;;;11.00;99.90;;;;;;5021820;28;20368;-78
2023/04/08 09:44:10;;;;;;;;;;;11.10;99.90;;;;;;5038323;28;19927;-78
2023/04/08 09:46:39;;;;;;;;;;;11.10;99.90;;;;;;5016315;28;19921;-78
2023/04/08 09:49:11;;;;;;;;;;;10.90;99.90;;;;;;5022048;28;19925;-78
2023/04/08 09:51:44;;;;;;;;;;;10.90;99.90;;;;;;5018975;28;19921;-78
2023/04/08 09:54:13;;;;;;;;;;;10.80;99.90;;;;;;5036720;28;19962;-78
2023/04/08 09:56:43;;;;;;;;;;;11.20;99.90;;;;;;5014391;28;19921;-78
2023/04/08 09:59:13;;;;;;;;;;;11.10;99.90;;;;;;5019722;28;19916;-78
2023/04/08 10:01:43;;;;;;;;;;;11.00;99.90;;;;;;5021079;28;20342;-78
2023/04/08 10:04:13;;;;;;;;;;;11.00;99.90;;;;;;5037192;28;19929;-78
2023/04/08 10:06:40;;;;;;;;;;;10.30;99.90;;;;;;5018357;28;19921;-78
2023/04/08 10:09:06;;;;;;;;;;;10.50;99.90;;;;;;5035600;28;20335;-78
2023/04/08 10:11:32;;;;;;;;;;;11.20;99.90;;;;;;5035727;28;20474;-78
2023/04/08 10:13:57;;;;;;;;;;;11.00;99.90;;;;;;5020296;28;19921;-78
2023/04/08 10:16:25;;;;;;;;;;;11.00;99.90;;;;;;5019265;28;20289;-78
2023/04/08 10:18:54;;;;;;;;;;;11.00;99.90;;;;;;5017032;28;19936;-78
2023/04/08 10:21:33;;;;;;;;;;;10.80;99.90;;;;;;5038425;28;19974;-78
2023/04/08 10:24:04;;;;;;;;;;;11.40;99.90;;;;;;5017178;28;19929;-78
2023/04/08 10:26:33;;;;;;;;;;;10.80;99.90;;;;;;5020739;28;19917;-78
2023/04/08 10:29:21;;;;;;;;;;;10.60;99.90;;;;;;5013856;28;20000;-78
2023/04/08 10:31:49;;;;;;;;;;;10.40;99.90;;;;;;5006372;28;19972;-78
2023/04/08 10:34:16;;;;;;;;;;;10.10;99.90;;;;;;5007959;28;19939;-78
2023/04/08 10:36:42;;;;;;;;;;;10.30;99.90;;;;;;5017474;28;20020;-78
2023/04/08 10:39:07;;;;;;;;;;;10.40;99.90;;;;;;5036460;28;20326;-78
2023/04/08 10:41:33;;;;;;;;;;;10.60;99.90;;;;;;5026603;28;20297;-78
2023/04/08 10:44:02;;;;;;;;;;;10.90;99.90;;;;;;5019280;28;19928;-77
2023/04/08 10:46:27;;;;;;;;;;;11.20;99.90;;;;;;5014188;28;19928;-78
2023/04/08 10:49:00;;;;;;;;;;;11.20;99.90;;;;;;5019666;28;19929;-78
2023/04/08 10:51:30;;;;;;;;;;;10.50;99.90;;;;;;5018107;28;20053;-78
2023/04/08 10:54:04;;;;;;;;;;;9.80;99.90;;;;;;5018031;28;19928;-78
2023/04/08 10:56:29;;;;;;;;;;;10.40;99.90;;;;;;4993572;28;19929;-78
2023/04/08 10:58:55;;;;;;;;;;;10.70;99.90;;;;;;5016974;28;19943;-77
2023/04/08 11:01:21;;;;;;;;;;;10.50;99.90;;;;;;5025225;28;19980;-78
2023/04/08 11:03:47;;;;;;;;;;;10.80;99.90;;;;;;5014663;28;20616;-78
2023/04/08 11:06:12;;;;;;;;;;;10.70;99.90;;;;;;5037753;28;19927;-78
2023/04/08 11:08:38;;;;;;;;;;;10.10;99.90;;;;;;5038445;28;20488;-78
2023/04/08 11:11:07;;;;;;;;;;;9.90;99.90;;;;;;5020291;28;19921;-78
2023/04/08 11:13:35;;;;;;;;;;;10.20;99.90;;;;;;5018804;28;19932;-78
2023/04/08 11:16:01;;;;;;;;;;;10.50;99.90;;;;;;5028787;28;20344;-78
2023/04/08 11:18:27;;;;;;;;;;;10.70;99.90;;;;;;5014034;28;19916;-78
2023/04/08 11:20:53;;;;;;;;;;;10.70;99.90;;;;;;5012457;28;19935;-78
2023/04/08 11:23:18;;;;;;;;;;;10.70;99.90;;;;;;5032886;28;20000;-77
2023/04/08 11:25:44;;;;;;;;;;;10.30;99.90;;;;;;4991876;28;19924;-78
2023/04/08 11:28:10;;;;;;;;;;;11.20;99.90;;;;;;5026219;28;19920;-78
2023/04/08 11:30:37;;;;;;;;;;;10.80;99.90;;;;;;5009971;28;19986;-78
2023/04/08 11:33:03;;;;;;;;;;;10.70;99.90;;;;;;5037025;28;19982;-78
2023/04/08 11:35:29;;;;;;;;;;;10.90;99.90;;;;;;5021209;28;20391;-78
2023/04/08 11:37:55;;;;;;;;;;;10.90;99.90;;;;;;5020480;28;19924;-77
2023/04/08 11:40:21;;;;;;;;;;;11.00;99.90;;;;;;5018294;28;19916;-78
2023/04/08 11:42:48;;;;;;;;;;;10.90;99.90;;;;;;5018232;28;20617;-78
2023/04/08 11:45:15;;;;;;;;;;;10.90;99.90;;;;;;5011869;28;20587;-78
2023/04/08 11:47:41;;;;;;;;;;;10.70;99.90;;;;;;5019355;28;19928;-78
2023/04/08 11:50:07;;;;;;;;;;;10.50;99.90;;;;;;5015057;28;19928;-78
2023/04/08 11:52:43;;;;;;;;;;;10.90;99.90;;;;;;4995598;28;19932;-78
2023/04/08 11:55:10;;;;;;;;;;;10.40;99.90;;;;;;5016213;28;19936;-78
2023/04/08 11:57:36;;;;;;;;;;;10.50;99.90;;;;;;5009986;28;19920;-78
2023/04/08 12:00:04;;;;;;;;;;;10.60;99.90;;;;;;5026670;28;19929;-78
2023/04/08 12:02:30;;;;;;;;;;;10.40;99.90;;;;;;5016820;28;19925;-78
2023/04/08 12:04:55;;;;;;;;;;;10.50;99.90;;;;;;5017173;28;20292;-78
2023/04/08 12:07:21;;;;;;;;;;;10.40;99.90;;;;;;5026599;28;19982;-78
2023/04/08 12:09:46;;;;;;;;;;;10.20;99.90;;;;;;5016648;28;19927;-79
2023/04/08 12:12:12;;;;;;;;;;;10.30;99.90;;;;;;5024354;28;19928;-77
2023/04/08 12:14:37;;;;;;;;;;;10.20;99.90;;;;;;4996963;28;19951;-76
2023/04/08 12:17:03;;;;;;;;;;;10.40;99.90;;;;;;5013495;28;19920;-76
2023/04/08 12:19:29;;;;;;;;;;;10.30;99.90;;;;;;5006679;28;19921;-76
2023/04/08 12:21:54;;;;;;;;;;;10.30;99.90;;;;;;5027941;28;19925;-76
2023/04/08 12:24:20;;;;;;;;;;;10.40;99.90;;;;;;5018580;28;19963;-78
2023/04/08 12:26:45;;;;;;;;;;;10.60;99.90;;;;;;5020223;28;20055;-78
2023/04/08 12:29:11;;;;;;;;;;;11.00;99.90;;;;;;5015595;28;19928;-78
2023/04/08 12:31:36;;;;;;;;;;;11.10;99.90;;;;;;5036924;28;19989;-78
2023/04/08 12:34:02;;;;;;;;;;;10.50;99.90;;;;;;5018494;28;19975;-78
2023/04/08 12:36:28;;;;;;;;;;;10.50;99.90;;;;;;4995600;28;20465;-78
2023/04/08 12:38:53;;;;;;;;;;;10.40;99.90;;;;;;5008939;28;20320;-78
2023/04/08 12:41:19;;;;;;;;;;;10.30;99.90;;;;;;5039561;28;20377;-78
2023/04/08 12:43:44;;;;;;;;;;;10.70;99.90;;;;;;5019932;28;20356;-78
2023/04/08 12:46:10;;;;;;;;;;;10.80;99.90;;;;;;5016910;28;19959;-78
2023/04/08 12:48:36;;;;;;;;;;;10.60;99.90;;;;;;5020293;28;19932;-78
2023/04/08 12:51:02;;;;;;;;;;;10.90;99.90;;;;;;5013355;28;19947;-78
2023/04/08 12:53:27;;;;;;;;;;;11.10;99.90;;;;;;5018622;28;19927;-78
2023/04/08 12:55:55;;;;;;;;;;;10.70;99.90;;;;;;5017367;28;19927;-78
2023/04/08 12:58:22;;;;;;;;;;;10.50;99.90;;;;;;5033238;28;20041;-78
2023/04/08 13:00:48;;;;;;;;;;;10.70;99.90;;;;;;5015714;28;19929;-78
2023/04/08 13:03:16;;;;;;;;;;;10.60;99.90;;;;;;5007222;28;19927;-78
2023/04/08 13:05:41;;;;;;;;;;;10.50;99.90;;;;;;5010459;28;19936;-78
2023/04/08 13:08:07;;;;;;;;;;;10.90;99.90;;;;;;5005693;28;19921;-78
2023/04/08 13:10:32;;;;;;;;;;;10.70;99.90;;;;;;5011945;28;19928;-78
2023/04/08 13:12:58;;;;;;;;;;;10.70;99.90;;;;;;5008879;28;20274;-78
2023/04/08 13:15:23;;;;;;;;;;;10.70;99.90;;;;;;5009668;28;20346;-78
2023/04/08 13:17:49;;;;;;;;;;;10.30;99.90;;;;;;5009514;28;19924;-78
2023/04/08 13:20:15;;;;;;;;;;;10.20;99.90;;;;;;5007932;28;20446;-79
2023/04/08 13:22:40;;;;;;;;;;;10.40;99.90;;;;;;5008550;28;19928;-78
2023/04/08 13:25:06;;;;;;;;;;;10.20;99.90;;;;;;5021903;28;19920;-78
2023/04/08 13:27:32;;;;;;;;;;;10.30;99.90;;;;;;5005570;28;19921;-78
2023/04/08 13:29:57;;;;;;;;;;;10.60;99.90;;;;;;5003475;28;19925;-78
2023/04/08 13:32:23;;;;;;;;;;;10.40;99.90;;;;;;5018143;28;19971;-78
2023/04/08 13:34:48;;;;;;;;;;;10.40;99.90;;;;;;5006992;28;19925;-78
2023/04/08 13:37:14;;;;;;;;;;;10.30;99.90;;;;;;5008760;28;20375;-78
2023/04/08 13:39:40;;;;;;;;;;;10.40;99.90;;;;;;5023348;28;19928;-79
2023/04/08 13:42:05;;;;;;;;;;;10.20;99.90;;;;;;5014874;28;20573;-78
2023/04/08 13:44:32;;;;;;;;;;;10.20;99.90;;;;;;5023286;28;20363;-78
2023/04/08 13:46:57;;;;;;;;;;;10.20;99.90;;;;;;5021668;28;19928;-77
2023/04/08 13:49:23;;;;;;;;;;;10.30;99.90;;;;;;5018568;28;19963;-78
2023/04/08 13:51:48;;;;;;;;;;;10.30;99.90;;;;;;5009434;28;19943;-78
2023/04/08 13:54:14;;;;;;;;;;;10.40;99.90;;;;;;5023897;28;20301;-79
2023/04/08 13:56:40;;;;;;;;;;;10.30;99.90;;;;;;5019379;28;19929;-78
2023/04/08 13:59:06;;;;;;;;;;;10.60;99.90;;;;;;5008485;28;19921;-78
2023/04/08 14:01:32;;;;;;;;;;;10.60;99.90;;;;;;5006502;28;19975;-78
2023/04/08 14:03:57;;;;;;;;;;;10.60;99.90;;;;;;5011357;28;19920;-77
2023/04/08 14:06:23;;;;;;;;;;;10.30;99.90;;;;;;5025788;28;19944;-78
2023/04/08 14:08:49;;;;;;;;;;;10.60;99.90;;;;;;5010440;28;19916;-80
2023/04/08 14:11:20;;;;;;;;;;;10.30;99.90;;;;;;5023172;28;20027;-78
2023/04/08 14:13:45;;;;;;;;;;;10.40;99.90;;;;;;4996850;28;19952;-79
2023/04/08 14:16:11;;;;;;;;;;;10.20;99.90;;;;;;5019598;28;20013;-78
2023/04/08 14:18:37;;;;;;;;;;;10.20;99.90;;;;;;5019017;28;20311;-76
2023/04/08 14:21:04;;;;;;;;;;;10.30;99.90;;;;;;5024405;28;19974;-78